sensor_id;sensor_type;location;lat;lon;timestamp;P1;durP1;ratioP1;P2;durP2;ratioP2
4424;SDS011;2225;53.568;13.266;2023-02-07T00:01:24;20.10;;;10.27;;
4424;SDS011;2225;53.568;13.266;2023-02-07T00:03:51;17.43;;;9.40;;
4424;SDS011;2225;53.568;13.266;2023-02-07T00:06:22;17.47;;;9.20;;
4424;SDS011;2225;53.568;13.266;2023-02-07T00:08:58;14.47;;;9.00;;
4424;SDS011;2225;53.568;13.266;2023-02-07T00:11:27;18.73;;;9.80;;
4424;SDS011;2225;53.568;13.266;2023-02-07T00:13:55;17.93;;;9.83;;
4424;SDS011;2225;53.568;13.266;2023-02-07T00:16:24;14.87;;;8.90;;
4424;SDS011;2225;53.568;13.266;2023-02-07T00:18:52;16.70;;;9.60;;
4424;SDS011;2225;53.568;13.266;2023-02-07T00:21:20;14.97;;;9.60;;
4424;SDS011;2225;53.568;13.266;2023-02-07T00:23:49;18.43;;;9.97;;
4424;SDS011;2225;53.568;13.266;2023-02-07T00:26:17;19.40;;;9.13;;
4424;SDS011;2225;53.568;13.266;2023-02-07T00:28:50;15.33;;;8.60;;
4424;SDS011;2225;53.568;13.266;2023-02-07T00:31:20;16.87;;;9.80;;
4424;SDS011;2225;53.568;13.266;2023-02-07T00:33:52;14.53;;;8.67;;
4424;SDS011;2225;53.568;13.266;2023-02-07T00:36:26;18.33;;;9.70;;
4424;SDS011;2225;53.568;13.266;2023-02-07T00:38:56;13.10;;;8.00;;
4424;SDS011;2225;53.568;13.266;2023-02-07T00:41:30;18.10;;;8.07;;
4424;SDS011;2225;53.568;13.266;2023-02-07T00:43:58;17.00;;;9.07;;
4424;SDS011;2225;53.568;13.266;2023-02-07T00:46:25;13.40;;;9.10;;
4424;SDS011;2225;53.568;13.266;2023-02-07T00:48:52;12.97;;;8.47;;
4424;SDS011;2225;53.568;13.266;2023-02-07T00:51:20;16.60;;;8.57;;
4424;SDS011;2225;53.568;13.266;2023-02-07T00:53:47;17.67;;;9.73;;
4424;SDS011;2225;53.568;13.266;2023-02-07T00:56:16;16.40;;;9.87;;
4424;SDS011;2225;53.568;13.266;2023-02-07T00:58:43;18.20;;;10.13;;
4424;SDS011;2225;53.568;13.266;2023-02-07T01:01:11;26.40;;;10.20;;
4424;SDS011;2225;53.568;13.266;2023-02-07T01:03:39;21.30;;;10.37;;
4424;SDS011;2225;53.568;13.266;2023-02-07T01:06:06;21.83;;;10.70;;
4424;SDS011;2225;53.568;13.266;2023-02-07T01:08:34;17.57;;;10.90;;
4424;SDS011;2225;53.568;13.266;2023-02-07T01:11:10;24.63;;;11.83;;
4424;SDS011;2225;53.568;13.266;2023-02-07T01:13:40;21.30;;;10.40;;
4424;SDS011;2225;53.568;13.266;2023-02-07T01:16:22;23.53;;;11.70;;
4424;SDS011;2225;53.568;13.266;2023-02-07T01:18:52;15.70;;;9.93;;
4424;SDS011;2225;53.568;13.266;2023-02-07T01:21:20;18.53;;;11.33;;
4424;SDS011;2225;53.568;13.266;2023-02-07T01:23:49;20.37;;;11.50;;
4424;SDS011;2225;53.568;13.266;2023-02-07T01:26:17;28.53;;;10.63;;
4424;SDS011;2225;53.568;13.266;2023-02-07T01:28:44;21.73;;;12.53;;
4424;SDS011;2225;53.568;13.266;2023-02-07T01:31:11;23.37;;;11.77;;
4424;SDS011;2225;53.568;13.266;2023-02-07T01:33:39;22.77;;;11.60;;
4424;SDS011;2225;53.568;13.266;2023-02-07T01:36:06;25.60;;;12.20;;
4424;SDS011;2225;53.568;13.266;2023-02-07T01:38:35;20.90;;;11.20;;
4424;SDS011;2225;53.568;13.266;2023-02-07T01:41:04;26.67;;;13.10;;
4424;SDS011;2225;53.568;13.266;2023-02-07T01:43:32;27.53;;;11.47;;
4424;SDS011;2225;53.568;13.266;2023-02-07T01:45:59;21.93;;;10.93;;
4424;SDS011;2225;53.568;13.266;2023-02-07T01:48:28;21.10;;;11.90;;
4424;SDS011;2225;53.568;13.266;2023-02-07T01:51:02;24.27;;;12.10;;
4424;SDS011;2225;53.568;13.266;2023-02-07T01:53:31;17.43;;;10.50;;
4424;SDS011;2225;53.568;13.266;2023-02-07T01:56:03;22.30;;;11.60;;
4424;SDS011;2225;53.568;13.266;2023-02-07T01:58:34;19.90;;;11.40;;
4424;SDS011;2225;53.568;13.266;2023-02-07T02:01:03;17.40;;;11.33;;
4424;SDS011;2225;53.568;13.266;2023-02-07T02:03:38;22.10;;;11.10;;
4424;SDS011;2225;53.568;13.266;2023-02-07T02:06:09;21.47;;;9.67;;
4424;SDS011;2225;53.568;13.266;2023-02-07T02:08:39;21.13;;;10.80;;
4424;SDS011;2225;53.568;13.266;2023-02-07T02:11:17;17.53;;;10.33;;
4424;SDS011;2225;53.568;13.266;2023-02-07T02:14:17;20.17;;;11.17;;
4424;SDS011;2225;53.568;13.266;2023-02-07T02:17:32;20.93;;;11.00;;
4424;SDS011;2225;53.568;13.266;2023-02-07T02:20:47;21.80;;;10.80;;
4424;SDS011;2225;53.568;13.266;2023-02-07T02:26:40;14.50;;;8.73;;
4424;SDS011;2225;53.568;13.266;2023-02-07T02:29:51;20.37;;;10.47;;
4424;SDS011;2225;53.568;13.266;2023-02-07T02:32:48;17.20;;;10.30;;
4424;SDS011;2225;53.568;13.266;2023-02-07T02:38:25;24.30;;;10.47;;
4424;SDS011;2225;53.568;13.266;2023-02-07T02:41:30;18.10;;;11.07;;
4424;SDS011;2225;53.568;13.266;2023-02-07T02:44:11;18.57;;;9.93;;
4424;SDS011;2225;53.568;13.266;2023-02-07T02:46:44;19.63;;;11.10;;
4424;SDS011;2225;53.568;13.266;2023-02-07T02:49:13;20.00;;;9.97;;
4424;SDS011;2225;53.568;13.266;2023-02-07T02:51:41;17.47;;;10.70;;
4424;SDS011;2225;53.568;13.266;2023-02-07T02:54:28;16.17;;;10.70;;
4424;SDS011;2225;53.568;13.266;2023-02-07T03:06:03;33.63;;;11.40;;
4424;SDS011;2225;53.568;13.266;2023-02-07T03:12:06;23.87;;;10.40;;
4424;SDS011;2225;53.568;13.266;2023-02-07T03:14:58;14.93;;;9.77;;
4424;SDS011;2225;53.568;13.266;2023-02-07T03:17:41;18.40;;;10.27;;
4424;SDS011;2225;53.568;13.266;2023-02-07T03:20:22;20.27;;;10.40;;
4424;SDS011;2225;53.568;13.266;2023-02-07T03:22:56;13.13;;;9.07;;
4424;SDS011;2225;53.568;13.266;2023-02-07T03:25:26;17.30;;;11.03;;
4424;SDS011;2225;53.568;13.266;2023-02-07T03:27:55;18.10;;;10.53;;
4424;SDS011;2225;53.568;13.266;2023-02-07T03:30:23;18.70;;;11.00;;
4424;SDS011;2225;53.568;13.266;2023-02-07T03:32:55;17.23;;;10.07;;
4424;SDS011;2225;53.568;13.266;2023-02-07T03:38:03;16.97;;;10.20;;
4424;SDS011;2225;53.568;13.266;2023-02-07T03:40:34;22.83;;;11.10;;
4424;SDS011;2225;53.568;13.266;2023-02-07T03:43:15;17.83;;;11.33;;
4424;SDS011;2225;53.568;13.266;2023-02-07T03:45:48;18.60;;;10.60;;
4424;SDS011;2225;53.568;13.266;2023-02-07T03:48:15;24.77;;;11.33;;
4424;SDS011;2225;53.568;13.266;2023-02-07T03:50:42;17.93;;;10.17;;
4424;SDS011;2225;53.568;13.266;2023-02-07T03:53:09;17.13;;;9.90;;
4424;SDS011;2225;53.568;13.266;2023-02-07T03:55:36;20.40;;;10.13;;
4424;SDS011;2225;53.568;13.266;2023-02-07T03:58:03;21.23;;;10.77;;
4424;SDS011;2225;53.568;13.266;2023-02-07T04:00:32;18.90;;;9.80;;
4424;SDS011;2225;53.568;13.266;2023-02-07T04:02:59;20.83;;;10.23;;
4424;SDS011;2225;53.568;13.266;2023-02-07T04:05:28;18.20;;;10.30;;
4424;SDS011;2225;53.568;13.266;2023-02-07T04:07:55;19.10;;;10.50;;
4424;SDS011;2225;53.568;13.266;2023-02-07T04:10:22;18.10;;;9.60;;
4424;SDS011;2225;53.568;13.266;2023-02-07T04:12:49;17.77;;;9.90;;
4424;SDS011;2225;53.568;13.266;2023-02-07T04:15:16;18.67;;;9.77;;
4424;SDS011;2225;53.568;13.266;2023-02-07T04:17:43;26.60;;;10.20;;
4424;SDS011;2225;53.568;13.266;2023-02-07T04:20:10;20.33;;;10.17;;
4424;SDS011;2225;53.568;13.266;2023-02-07T04:22:37;16.48;;;9.48;;
4424;SDS011;2225;53.568;13.266;2023-02-07T04:25:04;23.00;;;10.93;;
4424;SDS011;2225;53.568;13.266;2023-02-07T04:27:32;23.90;;;10.27;;
4424;SDS011;2225;53.568;13.266;2023-02-07T04:29:59;17.77;;;10.43;;
4424;SDS011;2225;53.568;13.266;2023-02-07T04:32:25;17.00;;;10.67;;
4424;SDS011;2225;53.568;13.266;2023-02-07T04:34:52;21.10;;;10.40;;
4424;SDS011;2225;53.568;13.266;2023-02-07T04:37:19;18.53;;;10.37;;
4424;SDS011;2225;53.568;13.266;2023-02-07T04:39:46;15.98;;;8.90;;
4424;SDS011;2225;53.568;13.266;2023-02-07T04:42:13;16.23;;;9.83;;
4424;SDS011;2225;53.568;13.266;2023-02-07T04:44:40;18.03;;;9.97;;
4424;SDS011;2225;53.568;13.266;2023-02-07T04:47:07;15.73;;;9.57;;
4424;SDS011;2225;53.568;13.266;2023-02-07T04:49:34;17.33;;;9.75;;
4424;SDS011;2225;53.568;13.266;2023-02-07T04:52:01;20.10;;;9.53;;
4424;SDS011;2225;53.568;13.266;2023-02-07T04:54:28;18.17;;;9.93;;
4424;SDS011;2225;53.568;13.266;2023-02-07T04:56:55;16.83;;;9.43;;
4424;SDS011;2225;53.568;13.266;2023-02-07T04:59:22;22.40;;;8.60;;
4424;SDS011;2225;53.568;13.266;2023-02-07T05:01:49;21.00;;;9.57;;
4424;SDS011;2225;53.568;13.266;2023-02-07T05:04:16;20.63;;;9.40;;
4424;SDS011;2225;53.568;13.266;2023-02-07T05:06:43;21.77;;;10.65;;
4424;SDS011;2225;53.568;13.266;2023-02-07T05:09:10;16.17;;;9.37;;
4424;SDS011;2225;53.568;13.266;2023-02-07T05:11:36;14.63;;;9.00;;
4424;SDS011;2225;53.568;13.266;2023-02-07T05:14:03;18.60;;;9.43;;
4424;SDS011;2225;53.568;13.266;2023-02-07T05:16:30;17.73;;;10.30;;
4424;SDS011;2225;53.568;13.266;2023-02-07T05:18:57;17.97;;;9.40;;
4424;SDS011;2225;53.568;13.266;2023-02-07T05:21:24;18.00;;;9.03;;
4424;SDS011;2225;53.568;13.266;2023-02-07T05:23:51;20.23;;;9.40;;
4424;SDS011;2225;53.568;13.266;2023-02-07T05:26:18;18.60;;;9.80;;
4424;SDS011;2225;53.568;13.266;2023-02-07T05:28:45;14.77;;;9.67;;
4424;SDS011;2225;53.568;13.266;2023-02-07T05:31:12;17.60;;;9.50;;
4424;SDS011;2225;53.568;13.266;2023-02-07T05:33:39;17.30;;;9.77;;
4424;SDS011;2225;53.568;13.266;2023-02-07T05:36:06;23.83;;;9.23;;
4424;SDS011;2225;53.568;13.266;2023-02-07T05:38:33;19.77;;;9.48;;
4424;SDS011;2225;53.568;13.266;2023-02-07T05:41:00;17.17;;;8.90;;
4424;SDS011;2225;53.568;13.266;2023-02-07T05:43:27;15.45;;;8.70;;
4424;SDS011;2225;53.568;13.266;2023-02-07T05:45:54;16.77;;;10.40;;
4424;SDS011;2225;53.568;13.266;2023-02-07T05:48:21;20.90;;;12.23;;
4424;SDS011;2225;53.568;13.266;2023-02-07T05:50:48;24.95;;;10.40;;
4424;SDS011;2225;53.568;13.266;2023-02-07T05:53:15;15.63;;;9.40;;
4424;SDS011;2225;53.568;13.266;2023-02-07T05:55:42;15.20;;;9.45;;
4424;SDS011;2225;53.568;13.266;2023-02-07T05:58:09;17.42;;;10.13;;
4424;SDS011;2225;53.568;13.266;2023-02-07T06:00:37;17.13;;;10.00;;
4424;SDS011;2225;53.568;13.266;2023-02-07T06:03:04;15.63;;;10.27;;
4424;SDS011;2225;53.568;13.266;2023-02-07T06:05:31;18.35;;;10.23;;
4424;SDS011;2225;53.568;13.266;2023-02-07T06:07:58;16.53;;;9.97;;
4424;SDS011;2225;53.568;13.266;2023-02-07T06:10:25;20.13;;;9.52;;
4424;SDS011;2225;53.568;13.266;2023-02-07T06:12:52;15.60;;;8.90;;
4424;SDS011;2225;53.568;13.266;2023-02-07T06:15:19;18.87;;;11.00;;
4424;SDS011;2225;53.568;13.266;2023-02-07T06:17:46;18.75;;;9.05;;
4424;SDS011;2225;53.568;13.266;2023-02-07T06:20:13;22.00;;;11.13;;
4424;SDS011;2225;53.568;13.266;2023-02-07T06:22:40;17.00;;;9.30;;
4424;SDS011;2225;53.568;13.266;2023-02-07T06:25:07;20.60;;;10.48;;
4424;SDS011;2225;53.568;13.266;2023-02-07T06:27:40;22.43;;;10.80;;
4424;SDS011;2225;53.568;13.266;2023-02-07T06:30:08;18.00;;;9.63;;
4424;SDS011;2225;53.568;13.266;2023-02-07T06:32:37;21.48;;;11.65;;
4424;SDS011;2225;53.568;13.266;2023-02-07T06:35:04;23.63;;;11.90;;
4424;SDS011;2225;53.568;13.266;2023-02-07T06:37:32;20.88;;;10.13;;
4424;SDS011;2225;53.568;13.266;2023-02-07T06:39:59;21.80;;;10.67;;
4424;SDS011;2225;53.568;13.266;2023-02-07T06:42:26;20.00;;;10.50;;
4424;SDS011;2225;53.568;13.266;2023-02-07T06:44:53;18.40;;;11.20;;
4424;SDS011;2225;53.568;13.266;2023-02-07T06:47:20;25.75;;;11.52;;
4424;SDS011;2225;53.568;13.266;2023-02-07T06:49:47;17.40;;;9.95;;
4424;SDS011;2225;53.568;13.266;2023-02-07T06:52:14;18.00;;;10.47;;
4424;SDS011;2225;53.568;13.266;2023-02-07T06:54:41;18.40;;;9.33;;
4424;SDS011;2225;53.568;13.266;2023-02-07T06:57:08;18.13;;;10.50;;
4424;SDS011;2225;53.568;13.266;2023-02-07T06:59:35;18.40;;;11.40;;
4424;SDS011;2225;53.568;13.266;2023-02-07T07:02:02;20.10;;;10.70;;
4424;SDS011;2225;53.568;13.266;2023-02-07T07:04:30;27.40;;;11.57;;
4424;SDS011;2225;53.568;13.266;2023-02-07T07:06:57;16.80;;;10.37;;
4424;SDS011;2225;53.568;13.266;2023-02-07T07:09:24;23.47;;;10.37;;
4424;SDS011;2225;53.568;13.266;2023-02-07T07:11:51;25.43;;;11.10;;
4424;SDS011;2225;53.568;13.266;2023-02-07T07:14:18;21.53;;;11.33;;
4424;SDS011;2225;53.568;13.266;2023-02-07T07:16:46;18.13;;;10.90;;
4424;SDS011;2225;53.568;13.266;2023-02-07T07:19:13;20.43;;;10.87;;
4424;SDS011;2225;53.568;13.266;2023-02-07T07:21:40;23.13;;;10.20;;
4424;SDS011;2225;53.568;13.266;2023-02-07T07:24:06;17.17;;;9.70;;
4424;SDS011;2225;53.568;13.266;2023-02-07T07:26:33;15.97;;;9.30;;
4424;SDS011;2225;53.568;13.266;2023-02-07T07:29:14;18.13;;;10.80;;
4424;SDS011;2225;53.568;13.266;2023-02-07T07:31:41;24.77;;;12.70;;
4424;SDS011;2225;53.568;13.266;2023-02-07T07:34:09;22.60;;;11.40;;
4424;SDS011;2225;53.568;13.266;2023-02-07T07:36:36;18.83;;;10.67;;
4424;SDS011;2225;53.568;13.266;2023-02-07T07:39:03;22.73;;;12.03;;
4424;SDS011;2225;53.568;13.266;2023-02-07T07:41:30;22.40;;;12.30;;
4424;SDS011;2225;53.568;13.266;2023-02-07T07:43:57;23.07;;;11.87;;
4424;SDS011;2225;53.568;13.266;2023-02-07T07:46:24;21.07;;;12.57;;
4424;SDS011;2225;53.568;13.266;2023-02-07T07:48:51;28.70;;;12.10;;
4424;SDS011;2225;53.568;13.266;2023-02-07T07:51:18;21.73;;;10.90;;
4424;SDS011;2225;53.568;13.266;2023-02-07T07:53:45;24.93;;;12.03;;
4424;SDS011;2225;53.568;13.266;2023-02-07T07:56:12;21.03;;;10.90;;
4424;SDS011;2225;53.568;13.266;2023-02-07T07:58:39;29.43;;;11.57;;
4424;SDS011;2225;53.568;13.266;2023-02-07T08:01:06;29.30;;;11.87;;
4424;SDS011;2225;53.568;13.266;2023-02-07T08:03:33;24.10;;;12.20;;
4424;SDS011;2225;53.568;13.266;2023-02-07T08:06:00;24.53;;;12.83;;
4424;SDS011;2225;53.568;13.266;2023-02-07T08:08:27;28.37;;;12.83;;
4424;SDS011;2225;53.568;13.266;2023-02-07T08:10:54;27.60;;;13.10;;
4424;SDS011;2225;53.568;13.266;2023-02-07T08:13:21;23.30;;;12.60;;
4424;SDS011;2225;53.568;13.266;2023-02-07T08:15:48;30.57;;;14.40;;
4424;SDS011;2225;53.568;13.266;2023-02-07T08:18:15;22.60;;;12.80;;
4424;SDS011;2225;53.568;13.266;2023-02-07T08:20:42;23.90;;;12.30;;
4424;SDS011;2225;53.568;13.266;2023-02-07T08:23:09;22.73;;;13.50;;
4424;SDS011;2225;53.568;13.266;2023-02-07T08:25:37;24.50;;;13.10;;
4424;SDS011;2225;53.568;13.266;2023-02-07T08:28:03;26.27;;;14.80;;
4424;SDS011;2225;53.568;13.266;2023-02-07T08:30:30;26.73;;;14.50;;
4424;SDS011;2225;53.568;13.266;2023-02-07T08:32:57;29.43;;;14.90;;
4424;SDS011;2225;53.568;13.266;2023-02-07T08:35:24;28.90;;;13.83;;
4424;SDS011;2225;53.568;13.266;2023-02-07T08:37:51;26.33;;;13.97;;
4424;SDS011;2225;53.568;13.266;2023-02-07T08:40:20;24.93;;;13.20;;
4424;SDS011;2225;53.568;13.266;2023-02-07T08:42:47;29.83;;;13.80;;
4424;SDS011;2225;53.568;13.266;2023-02-07T08:45:15;30.90;;;16.40;;
4424;SDS011;2225;53.568;13.266;2023-02-07T08:47:45;30.30;;;14.07;;
4424;SDS011;2225;53.568;13.266;2023-02-07T08:50:13;27.73;;;14.70;;
4424;SDS011;2225;53.568;13.266;2023-02-07T08:52:40;24.60;;;14.17;;
4424;SDS011;2225;53.568;13.266;2023-02-07T08:55:08;22.07;;;13.63;;
4424;SDS011;2225;53.568;13.266;2023-02-07T08:57:36;23.37;;;13.27;;
4424;SDS011;2225;53.568;13.266;2023-02-07T09:00:04;27.77;;;15.63;;
4424;SDS011;2225;53.568;13.266;2023-02-07T09:02:32;28.13;;;15.90;;
4424;SDS011;2225;53.568;13.266;2023-02-07T09:04:59;25.83;;;14.10;;
4424;SDS011;2225;53.568;13.266;2023-02-07T09:07:26;24.73;;;14.50;;
4424;SDS011;2225;53.568;13.266;2023-02-07T09:09:53;28.20;;;15.03;;
4424;SDS011;2225;53.568;13.266;2023-02-07T09:12:20;29.70;;;16.03;;
4424;SDS011;2225;53.568;13.266;2023-02-07T09:14:47;27.47;;;15.23;;
4424;SDS011;2225;53.568;13.266;2023-02-07T09:17:14;33.33;;;15.07;;
4424;SDS011;2225;53.568;13.266;2023-02-07T09:19:41;33.17;;;16.50;;
4424;SDS011;2225;53.568;13.266;2023-02-07T09:22:08;31.37;;;15.73;;
4424;SDS011;2225;53.568;13.266;2023-02-07T09:24:35;28.83;;;15.23;;
4424;SDS011;2225;53.568;13.266;2023-02-07T09:27:01;29.70;;;16.40;;
4424;SDS011;2225;53.568;13.266;2023-02-07T09:29:29;32.97;;;15.40;;
4424;SDS011;2225;53.568;13.266;2023-02-07T09:31:55;34.47;;;16.73;;
4424;SDS011;2225;53.568;13.266;2023-02-07T09:34:22;29.23;;;15.10;;
4424;SDS011;2225;53.568;13.266;2023-02-07T09:36:49;30.73;;;16.30;;
4424;SDS011;2225;53.568;13.266;2023-02-07T09:39:17;29.37;;;15.63;;
4424;SDS011;2225;53.568;13.266;2023-02-07T09:47:35;24.30;;;13.77;;
4424;SDS011;2225;53.568;13.266;2023-02-07T09:50:15;29.27;;;15.30;;
4424;SDS011;2225;53.568;13.266;2023-02-07T09:52:53;30.90;;;15.53;;
4424;SDS011;2225;53.568;13.266;2023-02-07T09:55:38;25.73;;;14.40;;
4424;SDS011;2225;53.568;13.266;2023-02-07T09:58:14;26.90;;;14.87;;
4424;SDS011;2225;53.568;13.266;2023-02-07T10:01:00;31.90;;;15.97;;
4424;SDS011;2225;53.568;13.266;2023-02-07T10:03:50;26.80;;;15.47;;
4424;SDS011;2225;53.568;13.266;2023-02-07T10:06:49;30.77;;;16.40;;
4424;SDS011;2225;53.568;13.266;2023-02-07T10:09:33;35.47;;;15.10;;
4424;SDS011;2225;53.568;13.266;2023-02-07T10:12:15;30.20;;;15.03;;
4424;SDS011;2225;53.568;13.266;2023-02-07T10:15:06;26.33;;;14.63;;
4424;SDS011;2225;53.568;13.266;2023-02-07T10:18:46;30.87;;;16.27;;
4424;SDS011;2225;53.568;13.266;2023-02-07T10:21:19;28.23;;;15.17;;
4424;SDS011;2225;53.568;13.266;2023-02-07T10:27:11;29.83;;;15.30;;
4424;SDS011;2225;53.568;13.266;2023-02-07T10:30:42;29.50;;;14.77;;
4424;SDS011;2225;53.568;13.266;2023-02-07T10:32:44;28.30;;;16.23;;
4424;SDS011;2225;53.568;13.266;2023-02-07T10:35:14;24.47;;;15.27;;
4424;SDS011;2225;53.568;13.266;2023-02-07T10:37:56;31.30;;;15.40;;
4424;SDS011;2225;53.568;13.266;2023-02-07T10:40:34;22.60;;;13.87;;
4424;SDS011;2225;53.568;13.266;2023-02-07T10:43:30;28.77;;;14.50;;
4424;SDS011;2225;53.568;13.266;2023-02-07T10:46:00;33.20;;;14.33;;
4424;SDS011;2225;53.568;13.266;2023-02-07T10:48:34;24.03;;;13.50;;
4424;SDS011;2225;53.568;13.266;2023-02-07T10:51:03;27.50;;;14.13;;
4424;SDS011;2225;53.568;13.266;2023-02-07T10:53:48;29.83;;;16.00;;
4424;SDS011;2225;53.568;13.266;2023-02-07T10:56:46;27.27;;;15.93;;
4424;SDS011;2225;53.568;13.266;2023-02-07T10:59:31;29.97;;;15.80;;
4424;SDS011;2225;53.568;13.266;2023-02-07T11:04:54;24.20;;;13.57;;
4424;SDS011;2225;53.568;13.266;2023-02-07T11:07:24;29.93;;;14.43;;
4424;SDS011;2225;53.568;13.266;2023-02-07T11:12:46;29.70;;;14.67;;
4424;SDS011;2225;53.568;13.266;2023-02-07T11:15:23;27.50;;;14.43;;
4424;SDS011;2225;53.568;13.266;2023-02-07T11:17:58;26.17;;;13.47;;
4424;SDS011;2225;53.568;13.266;2023-02-07T11:20:26;25.80;;;13.90;;
4424;SDS011;2225;53.568;13.266;2023-02-07T11:23:06;24.13;;;13.77;;
4424;SDS011;2225;53.568;13.266;2023-02-07T11:25:43;24.10;;;13.10;;
4424;SDS011;2225;53.568;13.266;2023-02-07T11:28:23;22.77;;;13.17;;
4424;SDS011;2225;53.568;13.266;2023-02-07T11:31:00;24.70;;;12.77;;
4424;SDS011;2225;53.568;13.266;2023-02-07T11:33:32;29.30;;;15.20;;
4424;SDS011;2225;53.568;13.266;2023-02-07T11:36:12;25.43;;;14.43;;
4424;SDS011;2225;53.568;13.266;2023-02-07T11:38:49;22.80;;;13.93;;
4424;SDS011;2225;53.568;13.266;2023-02-07T11:41:29;22.40;;;13.80;;
4424;SDS011;2225;53.568;13.266;2023-02-07T11:43:59;24.70;;;11.40;;
4424;SDS011;2225;53.568;13.266;2023-02-07T11:46:38;23.57;;;13.30;;
4424;SDS011;2225;53.568;13.266;2023-02-07T11:49:17;22.87;;;11.87;;
4424;SDS011;2225;53.568;13.266;2023-02-07T11:51:54;21.30;;;11.10;;
4424;SDS011;2225;53.568;13.266;2023-02-07T11:54:24;18.37;;;11.17;;
4424;SDS011;2225;53.568;13.266;2023-02-07T11:56:59;20.37;;;10.60;;
4424;SDS011;2225;53.568;13.266;2023-02-07T11:59:42;17.47;;;9.80;;
4424;SDS011;2225;53.568;13.266;2023-02-07T12:02:38;20.50;;;11.83;;
4424;SDS011;2225;53.568;13.266;2023-02-07T12:05:11;21.47;;;12.60;;
4424;SDS011;2225;53.568;13.266;2023-02-07T12:07:48;25.27;;;13.67;;
4424;SDS011;2225;53.568;13.266;2023-02-07T12:10:28;20.10;;;12.40;;
4424;SDS011;2225;53.568;13.266;2023-02-07T12:13:03;23.03;;;13.07;;
4424;SDS011;2225;53.568;13.266;2023-02-07T12:15:58;22.63;;;12.13;;
4424;SDS011;2225;53.568;13.266;2023-02-07T12:18:39;22.83;;;12.10;;
4424;SDS011;2225;53.568;13.266;2023-02-07T12:26:29;23.23;;;13.47;;
4424;SDS011;2225;53.568;13.266;2023-02-07T12:29:28;20.93;;;11.50;;
4424;SDS011;2225;53.568;13.266;2023-02-07T12:35:42;22.77;;;12.07;;
4424;SDS011;2225;53.568;13.266;2023-02-07T12:38:34;23.73;;;11.93;;
4424;SDS011;2225;53.568;13.266;2023-02-07T12:41:21;18.93;;;10.60;;
4424;SDS011;2225;53.568;13.266;2023-02-07T12:50:11;19.90;;;11.53;;
4424;SDS011;2225;53.568;13.266;2023-02-07T12:52:52;22.03;;;10.50;;
4424;SDS011;2225;53.568;13.266;2023-02-07T12:58:51;18.23;;;9.30;;
4424;SDS011;2225;53.568;13.266;2023-02-07T13:01:47;20.07;;;10.30;;
4424;SDS011;2225;53.568;13.266;2023-02-07T13:04:32;18.10;;;10.87;;
4424;SDS011;2225;53.568;13.266;2023-02-07T13:07:30;18.87;;;10.60;;
4424;SDS011;2225;53.568;13.266;2023-02-07T13:10:28;18.80;;;10.50;;
4424;SDS011;2225;53.568;13.266;2023-02-07T13:13:24;20.80;;;10.77;;
4424;SDS011;2225;53.568;13.266;2023-02-07T13:16:07;18.93;;;11.00;;
4424;SDS011;2225;53.568;13.266;2023-02-07T13:18:57;18.93;;;10.73;;
4424;SDS011;2225;53.568;13.266;2023-02-07T13:21:39;22.93;;;10.53;;
4424;SDS011;2225;53.568;13.266;2023-02-07T13:24:17;19.87;;;10.37;;
4424;SDS011;2225;53.568;13.266;2023-02-07T13:26:48;20.70;;;11.17;;
4424;SDS011;2225;53.568;13.266;2023-02-07T13:29:21;21.50;;;11.40;;
4424;SDS011;2225;53.568;13.266;2023-02-07T13:31:50;20.37;;;10.10;;
4424;SDS011;2225;53.568;13.266;2023-02-07T13:34:25;23.00;;;9.70;;
4424;SDS011;2225;53.568;13.266;2023-02-07T13:36:57;17.23;;;8.90;;
4424;SDS011;2225;53.568;13.266;2023-02-07T13:39:55;15.53;;;8.07;;
4424;SDS011;2225;53.568;13.266;2023-02-07T13:42:54;16.67;;;9.30;;
4424;SDS011;2225;53.568;13.266;2023-02-07T13:45:27;17.03;;;9.17;;
4424;SDS011;2225;53.568;13.266;2023-02-07T13:48:34;16.00;;;8.40;;
4424;SDS011;2225;53.568;13.266;2023-02-07T13:54:04;17.70;;;8.40;;
4424;SDS011;2225;53.568;13.266;2023-02-07T13:56:55;15.37;;;7.93;;
4424;SDS011;2225;53.568;13.266;2023-02-07T13:59:44;13.70;;;8.17;;
4424;SDS011;2225;53.568;13.266;2023-02-07T14:02:44;15.00;;;8.13;;
4424;SDS011;2225;53.568;13.266;2023-02-07T14:05:19;17.07;;;8.30;;
4424;SDS011;2225;53.568;13.266;2023-02-07T14:08:04;19.60;;;8.73;;
4424;SDS011;2225;53.568;13.266;2023-02-07T14:10:50;16.27;;;7.87;;
4424;SDS011;2225;53.568;13.266;2023-02-07T14:13:23;15.23;;;7.00;;
4424;SDS011;2225;53.568;13.266;2023-02-07T14:16:06;13.47;;;7.53;;
4424;SDS011;2225;53.568;13.266;2023-02-07T14:18:47;17.30;;;7.83;;
4424;SDS011;2225;53.568;13.266;2023-02-07T14:31:48;13.97;;;7.27;;
4424;SDS011;2225;53.568;13.266;2023-02-07T14:38:18;16.67;;;7.40;;
4424;SDS011;2225;53.568;13.266;2023-02-07T14:40:54;14.20;;;8.20;;
4424;SDS011;2225;53.568;13.266;2023-02-07T14:46:33;15.60;;;7.70;;
4424;SDS011;2225;53.568;13.266;2023-02-07T14:49:06;12.43;;;7.43;;
4424;SDS011;2225;53.568;13.266;2023-02-07T14:52:11;14.33;;;7.93;;
4424;SDS011;2225;53.568;13.266;2023-02-07T14:54:49;16.10;;;8.40;;
4424;SDS011;2225;53.568;13.266;2023-02-07T14:57:32;15.27;;;8.57;;
4424;SDS011;2225;53.568;13.266;2023-02-07T15:03:12;15.10;;;7.83;;
4424;SDS011;2225;53.568;13.266;2023-02-07T15:05:51;11.23;;;6.50;;
4424;SDS011;2225;53.568;13.266;2023-02-07T15:08:25;19.30;;;9.30;;
4424;SDS011;2225;53.568;13.266;2023-02-07T15:10:56;24.20;;;8.20;;
4424;SDS011;2225;53.568;13.266;2023-02-07T15:13:35;17.63;;;7.13;;
4424;SDS011;2225;53.568;13.266;2023-02-07T15:18:46;17.53;;;7.63;;
4424;SDS011;2225;53.568;13.266;2023-02-07T15:21:30;14.33;;;8.30;;
4424;SDS011;2225;53.568;13.266;2023-02-07T15:24:03;13.00;;;8.83;;
4424;SDS011;2225;53.568;13.266;2023-02-07T15:26:33;15.00;;;8.23;;
4424;SDS011;2225;53.568;13.266;2023-02-07T15:29:02;12.27;;;6.93;;
4424;SDS011;2225;53.568;13.266;2023-02-07T15:31:39;17.83;;;7.67;;
4424;SDS011;2225;53.568;13.266;2023-02-07T15:34:11;14.23;;;8.13;;
4424;SDS011;2225;53.568;13.266;2023-02-07T15:36:42;22.20;;;7.70;;
4424;SDS011;2225;53.568;13.266;2023-02-07T15:39:13;18.00;;;8.57;;
4424;SDS011;2225;53.568;13.266;2023-02-07T15:41:45;17.27;;;8.27;;
4424;SDS011;2225;53.568;13.266;2023-02-07T15:44:21;14.30;;;8.07;;
4424;SDS011;2225;53.568;13.266;2023-02-07T15:46:57;20.33;;;8.20;;
4424;SDS011;2225;53.568;13.266;2023-02-07T15:49:33;16.33;;;8.60;;
4424;SDS011;2225;53.568;13.266;2023-02-07T15:52:05;17.50;;;7.93;;
4424;SDS011;2225;53.568;13.266;2023-02-07T15:54:56;13.83;;;8.20;;
4424;SDS011;2225;53.568;13.266;2023-02-07T15:57:32;17.50;;;8.40;;
4424;SDS011;2225;53.568;13.266;2023-02-07T16:00:04;14.97;;;9.17;;
4424;SDS011;2225;53.568;13.266;2023-02-07T16:02:58;16.43;;;8.10;;
4424;SDS011;2225;53.568;13.266;2023-02-07T16:05:36;17.03;;;7.57;;
4424;SDS011;2225;53.568;13.266;2023-02-07T16:08:05;16.67;;;8.27;;
4424;SDS011;2225;53.568;13.266;2023-02-07T16:13:50;23.20;;;11.63;;
4424;SDS011;2225;53.568;13.266;2023-02-07T16:16:57;16.47;;;10.13;;
4424;SDS011;2225;53.568;13.266;2023-02-07T16:19:28;16.73;;;10.73;;
4424;SDS011;2225;53.568;13.266;2023-02-07T16:22:04;19.37;;;11.50;;
4424;SDS011;2225;53.568;13.266;2023-02-07T16:24:35;21.47;;;11.47;;
4424;SDS011;2225;53.568;13.266;2023-02-07T16:27:06;18.80;;;10.43;;
4424;SDS011;2225;53.568;13.266;2023-02-07T16:29:39;23.23;;;11.70;;
4424;SDS011;2225;53.568;13.266;2023-02-07T16:32:08;21.23;;;10.83;;
4424;SDS011;2225;53.568;13.266;2023-02-07T16:34:36;20.00;;;10.87;;
4424;SDS011;2225;53.568;13.266;2023-02-07T16:37:22;23.47;;;12.20;;
4424;SDS011;2225;53.568;13.266;2023-02-07T16:39:49;17.67;;;11.77;;